Time;durP1;ratioP1;P1;durP2;ratioP2;P2;SDS_P1;SDS_P2;PMS_P1;PMS_P2;Temp;Humidity;BMP_temperature;BMP_pressure;BME280_temperature;BME280_humidity;BME280_pressure;Samples;Min_cycle;Max_cycle;Signal;HPM_P1;HPM_P2
2022/01/18 00:00:43;;;;;;;45.45;16.85;;;;;;;1.57;100.00;103799.81;5054403;28;20017;-85
2022/01/18 00:03:08;;;;;;;40.10;18.13;;;;;;;1.70;100.00;103797.97;5054051;28;20024;-84
2022/01/18 00:05:34;;;;;;;40.35;17.90;;;;;;;1.82;100.00;103809.00;5053196;28;20021;-84
2022/01/18 00:07:59;;;;;;;37.47;17.30;;;;;;;1.89;100.00;103808.56;5052701;28;20036;-84
2022/01/18 00:10:30;;;;;;;53.70;17.50;;;;;;;1.96;100.00;103814.97;5054109;28;20116;-85
2022/01/18 00:13:09;;;;;;;50.63;17.67;;;;;;;2.05;100.00;103818.09;5053082;28;20033;-84
2022/01/18 00:18:21;;;;;;;45.78;16.90;;;;;;;2.18;100.00;103810.28;5053806;28;20459;-85
2022/01/18 00:21:13;;;;;;;43.85;17.42;;;;;;;2.26;100.00;103815.91;5052682;28;20538;-85
2022/01/18 00:23:39;;;;;;;47.72;17.15;;;;;;;2.32;100.00;103814.56;5053960;28;20017;-84
2022/01/18 00:26:09;;;;;;;41.33;16.45;;;;;;;2.36;100.00;103813.06;5052548;28;20520;-85
2022/01/18 00:28:36;;;;;;;50.35;17.88;;;;;;;2.39;100.00;103813.22;5052110;28;20061;-84
2022/01/18 00:37:25;;;;;;;49.13;17.90;;;;;;;2.53;100.00;103820.06;5053406;28;20037;-84
2022/01/18 00:39:11;;;;;;;41.88;17.50;;;;;;;2.60;100.00;103829.00;5041167;28;20507;-85
2022/01/18 00:41:38;;;;;;;47.70;17.55;;;;;;;2.63;100.00;103830.88;5052401;28;20033;-84
2022/01/18 00:44:04;;;;;;;46.72;18.27;;;;;;;2.65;100.00;103826.69;5053271;28;20017;-85
2022/01/18 00:46:30;;;;;;;56.78;18.83;;;;;;;2.67;100.00;103830.25;5052657;28;20033;-84
2022/01/18 00:48:58;;;;;;;43.40;17.00;;;;;;;2.68;100.00;103838.09;5052007;28;20024;-85
2022/01/18 00:51:23;;;;;;;43.25;17.25;;;;;;;2.72;100.00;103837.44;5053326;28;20025;-84
2022/01/18 00:53:49;;;;;;;43.28;17.15;;;;;;;2.74;100.00;103840.97;5052404;28;20044;-84
2022/01/18 00:58:42;;;;;;;47.58;17.75;;;;;;;2.81;100.00;103848.28;5052349;28;20033;-85
2022/01/18 01:01:10;;;;;;;51.38;17.73;;;;;;;2.85;100.00;103845.88;5052715;28;20032;-84
2022/01/18 01:03:35;;;;;;;53.45;16.63;;;;;;;2.87;100.00;103847.72;5052294;28;20032;-84
2022/01/18 01:06:01;;;;;;;35.90;16.20;;;;;;;2.87;100.00;103844.25;5052983;28;20037;-85
2022/01/18 01:08:27;;;;;;;47.67;15.98;;;;;;;2.94;100.00;103846.38;5050955;28;20028;-85
2022/01/18 01:10:52;;;;;;;37.42;15.30;;;;;;;2.95;100.00;103846.47;5052561;28;20476;-84
2022/01/18 01:13:18;;;;;;;38.67;15.48;;;;;;;2.95;100.00;103843.91;5052499;28;20086;-84
2022/01/18 01:16:03;;;;;;;51.53;17.70;;;;;;;2.97;100.00;103838.81;5050778;28;20092;-85
2022/01/18 01:45:03;;;;;;;37.58;17.73;;;;;;;3.13;100.00;103836.28;5051530;28;20040;-85
2022/01/18 01:47:36;;;;;;;34.72;17.27;;;;;;;3.15;100.00;103831.22;5052230;28;20362;-84
2022/01/18 01:50:08;;;;;;;46.07;18.17;;;;;;;3.17;100.00;103839.91;5052153;28;20107;-85
2022/01/18 01:52:33;;;;;;;49.80;19.25;;;;;;;3.18;100.00;103833.97;5050584;28;20631;-85
2022/01/18 01:54:58;;;;;;;48.88;20.13;;;;;;;3.17;100.00;103830.50;5050047;28;20025;-84
2022/01/18 01:57:24;;;;;;;41.95;18.80;;;;;;;3.17;100.00;103830.50;5052295;28;20020;-84
2022/01/18 01:59:50;;;;;;;41.47;18.35;;;;;;;3.22;100.00;103831.63;5051344;28;20029;-84
2022/01/18 02:02:15;;;;;;;48.45;19.90;;;;;;;3.25;100.00;103841.22;5050916;28;20130;-85
2022/01/18 02:04:40;;;;;;;56.03;20.73;;;;;;;3.25;100.00;103831.81;5050942;28;20484;-85
2022/01/18 02:07:06;;;;;;;50.95;20.83;;;;;;;3.24;100.00;103830.03;5051765;28;20037;-85
2022/01/18 02:09:32;;;;;;;59.35;20.23;;;;;;;3.29;100.00;103840.59;5050525;28;20028;-85
2022/01/18 02:12:00;;;;;;;48.35;22.98;;;;;;;3.30;100.00;103842.34;5050860;28;20060;-85
2022/01/18 02:14:26;;;;;;;50.13;22.42;;;;;;;3.32;100.00;103837.28;5051835;28;20048;-85
2022/01/18 02:22:20;;;;;;;59.63;22.23;;;;;;;3.35;100.00;103840.91;5051512;28;20008;-85
2022/01/18 02:24:46;;;;;;;64.63;22.42;;;;;;;3.32;100.00;103837.28;5049262;28;20462;-85
2022/01/18 02:27:12;;;;;;;56.53;22.98;;;;;;;3.34;100.00;103838.28;5050584;28;20037;-85
2022/01/18 02:29:37;;;;;;;63.20;22.48;;;;;;;3.35;100.00;103837.47;5051603;28;20036;-85
2022/01/18 02:32:03;;;;;;;63.15;23.35;;;;;;;3.36;100.00;103834.06;5050907;28;20453;-85
2022/01/18 02:34:28;;;;;;;60.35;23.52;;;;;;;3.39;100.00;103831.66;5050564;28;20029;-85
2022/01/18 02:36:55;;;;;;;57.22;23.48;;;;;;;3.39;100.00;103836.81;5051368;28;20028;-84
2022/01/18 02:39:23;;;;;;;60.63;24.80;;;;;;;3.39;100.00;103826.50;5051034;28;20032;-84
2022/01/18 02:41:54;;;;;;;60.65;23.50;;;;;;;3.39;100.00;103822.22;5050102;28;20021;-85
2022/01/18 02:44:20;;;;;;;46.78;22.85;;;;;;;3.39;100.00;103817.06;5051573;28;20039;-84
2022/01/18 02:46:45;;;;;;;49.60;22.67;;;;;;;3.41;100.00;103809.44;5051464;28;20388;-86
2022/01/18 02:49:10;;;;;;;63.03;24.55;;;;;;;3.38;100.00;103822.16;5050380;28;20029;-84
2022/01/18 02:51:36;;;;;;;53.17;23.33;;;;;;;3.40;100.00;103824.03;5051210;28;20045;-84
2022/01/18 02:54:04;;;;;;;51.67;22.08;;;;;;;3.42;100.00;103830.13;5049420;28;20033;-85
2022/01/18 02:57:00;;;;;;;61.33;23.05;;;;;;;3.44;100.00;103833.69;5050214;28;20473;-84
2022/01/18 02:59:32;;;;;;;50.13;24.05;;;;;;;3.44;100.00;103828.53;5051190;28;20037;-85
2022/01/18 03:04:45;;;;;;;51.45;23.17;;;;;;;3.46;100.00;103823.44;5051252;28;20040;-86
2022/01/18 03:07:11;;;;;;;50.35;24.75;;;;;;;3.45;100.00;103822.56;5051256;28;20025;-85
2022/01/18 03:09:36;;;;;;;59.92;24.10;;;;;;;3.44;100.00;103810.47;5049488;28;20040;-84
2022/01/18 03:12:03;;;;;;;63.15;25.10;;;;;;;3.42;100.00;103827.53;5051981;28;20469;-85
2022/01/18 03:14:28;;;;;;;63.42;24.90;;;;;;;3.45;100.00;103827.72;5054931;28;20032;-85
2022/01/18 03:16:54;;;;;;;63.15;24.33;;;;;;;3.47;100.00;103832.97;5054394;28;20519;-85
2022/01/18 03:19:19;;;;;;;62.22;25.85;;;;;;;3.46;100.00;103833.75;5055409;28;20025;-86
2022/01/18 03:21:44;;;;;;;58.28;24.95;;;;;;;3.46;100.00;103837.22;5054407;28;20086;-85
2022/01/18 03:29:28;;;;;;;54.75;25.73;;;;;;;3.47;100.00;103838.13;5053922;28;20106;-85
2022/01/18 03:31:54;;;;;;;61.95;27.77;;;;;;;3.44;100.00;103838.84;5054438;28;20033;-85
2022/01/18 03:34:19;;;;;;;53.42;26.60;;;;;;;3.42;100.00;103837.88;5054681;28;20053;-85
2022/01/18 03:36:45;;;;;;;63.33;26.48;;;;;;;3.44;100.00;103845.69;5053922;28;20049;-85
2022/01/18 03:39:10;;;;;;;56.45;26.60;;;;;;;3.43;100.00;103842.25;5054436;28;20025;-85
2022/01/18 03:41:35;;;;;;;56.38;26.55;;;;;;;3.44;100.00;103835.38;5053423;28;20156;-84
2022/01/18 03:44:01;;;;;;;48.65;26.05;;;;;;;3.44;100.00;103841.44;5053678;28;20483;-85
2022/01/18 03:46:26;;;;;;;53.15;25.45;;;;;;;3.43;100.00;103834.50;5054680;28;20099;-85
2022/01/18 03:48:52;;;;;;;50.47;25.05;;;;;;;3.44;100.00;103831.09;5054540;28;20457;-85
2022/01/18 03:51:18;;;;;;;63.08;27.50;;;;;;;3.46;100.00;103834.63;5053464;28;20031;-85
2022/01/18 03:53:43;;;;;;;51.47;26.20;;;;;;;3.46;100.00;103837.22;5054322;28;20025;-85
2022/01/18 03:56:09;;;;;;;45.75;26.23;;;;;;;3.47;100.00;103846.75;5037611;28;20049;-84
2022/01/18 03:58:34;;;;;;;47.88;26.63;;;;;;;3.45;100.00;103847.47;5042012;28;20443;-85
2022/01/18 04:01:00;;;;;;;51.35;26.42;;;;;;;3.45;100.00;103848.34;5054053;28;20032;-85
2022/01/18 04:03:26;;;;;;;58.42;28.00;;;;;;;3.46;100.00;103852.69;5054118;28;20029;-85
2022/01/18 04:05:52;;;;;;;52.90;27.45;;;;;;;3.42;100.00;103847.31;5053462;28;20021;-86
2022/01/18 04:08:21;;;;;;;59.30;28.27;;;;;;;3.44;100.00;103854.31;5054008;28;20029;-85
2022/01/18 04:10:46;;;;;;;52.47;29.25;;;;;;;3.48;100.00;103863.09;5053848;28;20480;-85
2022/01/18 04:13:11;;;;;;;54.17;28.83;;;;;;;3.48;100.00;103861.41;5052857;28;20025;-85
2022/01/18 04:15:37;;;;;;;57.22;28.38;;;;;;;3.48;100.00;103860.53;5054036;28;20170;-85
2022/01/18 04:18:16;;;;;;;51.88;27.65;;;;;;;3.49;100.00;103859.72;5053721;28;20040;-84
2022/01/18 04:28:54;;;;;;;59.70;28.70;;;;;;;3.43;100.00;103860.28;5053887;28;20496;-85
2022/01/18 04:31:19;;;;;;;67.35;30.55;;;;;;;3.48;100.00;103869.16;5053720;28;20029;-85
2022/01/18 04:33:45;;;;;;;55.88;28.27;;;;;;;3.48;100.00;103865.69;5052782;28;20037;-85
2022/01/18 04:36:10;;;;;;;63.15;29.67;;;;;;;3.46;100.00;103860.44;5053605;28;20039;-85
2022/01/18 04:38:36;;;;;;;61.38;29.48;;;;;;;3.47;100.00;103863.94;5053655;28;20025;-85
2022/01/18 04:41:08;;;;;;;62.80;28.42;;;;;;;3.44;100.00;103862.06;5052767;28;20029;-85
2022/01/18 04:43:50;;;;;;;69.70;28.88;;;;;;;3.43;100.00;103870.63;5052580;28;20431;-84
2022/01/18 04:49:02;;;;;;;59.10;28.52;;;;;;;3.41;100.00;103867.06;5053265;28;20116;-85
2022/01/18 04:51:27;;;;;;;66.60;29.33;;;;;;;3.42;100.00;103866.22;5053010;28;20033;-85
2022/01/18 04:53:56;;;;;;;62.58;29.23;;;;;;;3.38;100.00;103859.16;5052453;28;20044;-85
2022/01/18 04:57:51;;;;;;;62.58;28.83;;;;;;;3.42;100.00;103867.94;5053749;28;20446;-85
2022/01/18 04:59:14;;;;;;;56.17;28.42;;;;;;;3.39;100.00;103867.75;5052460;28;20033;-85
2022/01/18 05:01:42;;;;;;;72.68;29.10;;;;;;;3.39;100.00;103871.22;5052075;28;20097;-84
2022/01/18 05:04:08;;;;;;;63.03;28.13;;;;;;;3.39;100.00;103871.22;5053017;28;20040;-85
2022/01/18 05:06:34;;;;;;;61.25;28.27;;;;;;;3.41;100.00;103871.31;5052959;28;20025;-85
2022/01/18 05:09:06;;;;;;;72.43;29.50;;;;;;;3.39;100.00;103871.22;5052386;28;20079;-85
2022/01/18 05:11:36;;;;;;;68.15;29.85;;;;;;;3.37;100.00;103870.28;5052648;28;20031;-85
2022/01/18 05:16:47;;;;;;;66.75;27.95;;;;;;;3.42;100.00;103885.97;5052253;28;20557;-85
2022/01/18 05:19:25;;;;;;;68.88;28.05;;;;;;;3.41;100.00;103874.78;5052777;28;20115;-85
2022/01/18 05:24:19;;;;;;;69.07;28.58;;;;;;;3.39;100.00;103875.50;5053048;28;20480;-85
2022/01/18 05:26:44;;;;;;;69.55;28.33;;;;;;;3.38;100.00;103863.41;5052527;28;20032;-84
2022/01/18 05:29:10;;;;;;;67.55;27.77;;;;;;;3.41;100.00;103871.31;5051576;28;20049;-85
2022/01/18 05:31:35;;;;;;;68.93;27.13;;;;;;;3.42;100.00;103881.72;5052227;28;20024;-85
2022/01/18 05:34:00;;;;;;;71.30;27.30;;;;;;;3.41;100.00;103873.91;5051583;28;20037;-84
2022/01/18 05:36:27;;;;;;;70.53;26.48;;;;;;;3.43;100.00;103880.94;5050635;28;20476;-85
2022/01/18 05:38:52;;;;;;;80.70;29.02;;;;;;;3.44;100.00;103882.69;5052557;28;20037;-84
2022/01/18 05:41:18;;;;;;;67.25;28.15;;;;;;;3.44;100.00;103882.69;5052623;28;20057;-84
2022/01/18 05:43:43;;;;;;;76.40;28.58;;;;;;;3.44;100.00;103882.69;5050823;28;20029;-84
2022/01/18 05:46:08;;;;;;;59.72;26.05;;;;;;;3.46;100.00;103882.75;5052127;28;20021;-85
2022/01/18 05:48:34;;;;;;;64.90;26.15;;;;;;;3.47;100.00;103879.41;5052135;28;20421;-84
2022/01/18 05:50:59;;;;;;;66.25;24.33;;;;;;;3.46;100.00;103865.59;5051477;28;20476;-85
2022/01/18 05:53:35;;;;;;;71.03;24.33;;;;;;;3.41;100.00;103867.06;5051882;28;20131;-84
2022/01/18 05:56:04;;;;;;;64.78;23.75;;;;;;;3.48;100.00;103882.03;5051967;28;20082;-85
2022/01/18 05:58:29;;;;;;;69.22;22.83;;;;;;;3.47;100.00;103880.28;5051245;28;20034;-84
2022/01/18 06:00:55;;;;;;;66.97;24.75;;;;;;;3.47;100.00;103876.81;5052008;28;20025;-85
2022/01/18 06:03:33;;;;;;;72.70;23.83;;;;;;;3.47;100.00;103876.81;5052048;28;20150;-85
2022/01/18 06:08:43;;;;;;;;;;;;;;;3.51;100.00;103873.59;5052358;28;20067;-84
2022/01/18 06:11:08;;;;;;;61.28;23.25;;;;;;;3.49;100.00;103873.50;5050316;28;19912;-85
2022/01/18 06:13:34;;;;;;;66.70;23.35;;;;;;;3.49;100.00;103873.50;5051613;28;20036;-85
2022/01/18 06:15:59;;;;;;;75.88;24.77;;;;;;;3.50;100.00;103875.28;5051519;28;20032;-84
2022/01/18 06:18:24;;;;;;;66.13;24.27;;;;;;;3.49;100.00;103873.50;5051020;28;20056;-85
2022/01/18 06:20:50;;;;;;;74.72;25.02;;;;;;;3.49;100.00;103873.50;5051309;28;20029;-85
2022/01/18 06:23:15;;;;;;;76.68;24.58;;;;;;;3.49;100.00;103875.19;5051634;28;20033;-85
2022/01/18 06:25:41;;;;;;;73.15;25.45;;;;;;;3.51;100.00;103871.00;5050515;28;20021;-85
2022/01/18 06:28:07;;;;;;;64.63;23.40;;;;;;;3.52;100.00;103876.25;5051029;28;20098;-85
2022/01/18 06:30:32;;;;;;;65.43;25.52;;;;;;;3.51;100.00;103868.44;5051299;28;20024;-84
2022/01/18 06:32:57;;;;;;;70.80;25.75;;;;;;;3.50;100.00;103874.41;5050762;28;20460;-84
2022/01/18 06:35:23;;;;;;;61.63;23.55;;;;;;;3.54;100.00;103875.47;5051431;28;20025;-85
2022/01/18 06:37:48;;;;;;;69.38;23.67;;;;;;;3.55;100.00;103880.69;5051198;28;20079;-84
2022/01/18 06:40:14;;;;;;;73.05;25.45;;;;;;;3.55;100.00;103874.66;5050517;28;20059;-84
2022/01/18 06:42:39;;;;;;;64.32;24.52;;;;;;;3.52;100.00;103872.78;5051332;28;20029;-85
2022/01/18 06:45:06;;;;;;;63.95;24.95;;;;;;;3.55;100.00;103877.22;5050909;28;20429;-85
2022/01/18 06:47:32;;;;;;;63.70;24.10;;;;;;;3.55;100.00;103877.22;5049792;28;20044;-84
2022/01/18 06:49:57;;;;;;;79.13;24.90;;;;;;;3.52;100.00;103871.09;5051297;28;20017;-84
2022/01/18 06:52:22;;;;;;;72.00;24.17;;;;;;;3.55;100.00;103878.09;5051036;28;20036;-85
2022/01/18 06:54:48;;;;;;;64.57;24.95;;;;;;;3.56;100.00;103884.16;5050152;28;20553;-85
2022/01/18 06:57:13;;;;;;;67.15;23.75;;;;;;;3.55;100.00;103878.09;5051145;28;20115;-84
2022/01/18 06:59:39;;;;;;;66.63;24.33;;;;;;;3.51;100.00;103876.16;5051495;28;20103;-84
2022/01/18 07:02:04;;;;;;;69.22;25.38;;;;;;;3.54;100.00;103890.94;5049613;28;20056;-84
2022/01/18 07:04:30;;;;;;;59.67;25.60;;;;;;;3.53;100.00;103884.84;5051165;28;20032;-84
2022/01/18 07:06:56;;;;;;;74.03;24.88;;;;;;;3.51;100.00;103883.91;5051178;28;20032;-84
2022/01/18 07:09:23;;;;;;;75.30;23.85;;;;;;;3.48;100.00;103882.03;5050324;28;20082;-84
2022/01/18 07:11:50;;;;;;;66.85;24.50;;;;;;;3.54;100.00;103896.09;5050741;28;20487;-84
2022/01/18 07:14:15;;;;;;;72.72;25.70;;;;;;;3.51;100.00;103895.13;5049869;28;20491;-84
2022/01/18 07:16:41;;;;;;;66.75;23.08;;;;;;;3.52;100.00;103896.00;5051042;28;20057;-85
2022/01/18 07:19:06;;;;;;;71.03;24.63;;;;;;;3.51;100.00;103895.13;5051093;28;20032;-85
2022/01/18 07:21:31;;;;;;;73.90;24.95;;;;;;;3.51;100.00;103891.66;5049356;28;20431;-85
2022/01/18 07:24:04;;;;;;;69.80;24.83;;;;;;;3.51;100.00;103895.13;5050761;28;20048;-85
2022/01/18 07:26:30;;;;;;;69.13;22.70;;;;;;;3.51;100.00;103895.13;5051300;28;20068;-85
2022/01/18 07:28:55;;;;;;;75.03;24.73;;;;;;;3.54;100.00;103907.28;5049821;28;20132;-85
2022/01/18 07:31:20;;;;;;;64.78;24.50;;;;;;;3.55;100.00;103905.59;5050887;28;20060;-85
2022/01/18 07:33:46;;;;;;;79.32;24.85;;;;;;;3.50;100.00;103900.19;5050888;28;20456;-86
2022/01/18 07:36:11;;;;;;;70.15;24.13;;;;;;;3.54;100.00;103903.84;5050178;28;20025;-86
2022/01/18 07:38:36;;;;;;;75.30;23.77;;;;;;;3.54;100.00;103911.56;5050577;28;20064;-86
2022/01/18 07:41:02;;;;;;;71.78;24.70;;;;;;;3.57;100.00;103904.88;5050343;28;20079;-86
2022/01/18 07:43:27;;;;;;;69.88;23.50;;;;;;;3.59;100.00;103910.13;5049943;28;20108;-85
2022/01/18 07:45:52;;;;;;;74.20;24.98;;;;;;;3.60;100.00;103911.91;5050979;28;20051;-85
2022/01/18 07:48:23;;;;;;;66.28;23.40;;;;;;;3.62;100.00;103915.44;5050538;28;20033;-85
2022/01/18 07:50:49;;;;;;;66.38;23.98;;;;;;;3.62;100.00;103915.44;5049353;28;20033;-85
2022/01/18 07:53:14;;;;;;;80.72;25.75;;;;;;;3.65;100.00;103920.78;5050288;28;20087;-86
2022/01/18 07:55:50;;;;;;;;;;;;;;;;;;;;;
2022/01/18 07:58:15;;;;;;;86.47;26.05;;;;;;;3.64;100.00;103916.44;5049278;28;20035;-86
2022/01/18 08:00:41;;;;;;;88.85;26.55;;;;;;;3.66;100.00;103914.78;5053509;28;20111;-86
2022/01/18 08:03:07;;;;;;;79.05;24.98;;;;;;;3.65;100.00;103918.19;5054235;28;20542;-85
2022/01/18 08:05:33;;;;;;;79.93;25.70;;;;;;;3.66;100.00;103925.13;5053178;28;20025;-86
2022/01/18 08:07:58;;;;;;;83.40;25.10;;;;;;;3.68;100.00;103921.81;5053919;28;20035;-86
2022/01/18 08:10:30;;;;;;;72.50;24.90;;;;;;;3.71;100.00;103927.16;5053849;28;20029;-86
2022/01/18 08:12:56;;;;;;;68.45;25.08;;;;;;;3.73;100.00;103922.97;5054066;28;20055;-87
2022/01/18 08:15:23;;;;;;;69.20;25.02;;;;;;;3.76;100.00;103924.84;5054475;28;20017;-86
2022/01/18 08:17:50;;;;;;;72.65;25.08;;;;;;;3.79;100.00;103917.22;5052793;28;20070;-88
2022/01/18 08:20:16;;;;;;;65.82;26.52;;;;;;;3.83;100.00;103921.78;5053404;28;20029;-86
2022/01/18 08:22:46;;;;;;;68.60;25.45;;;;;;;3.85;100.00;103914.09;5053868;28;20064;-86
2022/01/18 08:25:12;;;;;;;72.53;24.27;;;;;;;3.88;100.00;103917.72;5053169;28;20037;-86
2022/01/18 08:27:38;;;;;;;77.20;23.92;;;;;;;3.91;100.00;103917.88;5053154;28;20076;-87
2022/01/18 08:30:07;;;;;;;69.78;25.38;;;;;;;3.94;100.00;103915.47;5053431;28;20123;-86
2022/01/18 08:32:32;;;;;;;70.78;26.55;;;;;;;3.96;100.00;103902.66;5052942;28;20029;-86
2022/01/18 08:34:58;;;;;;;76.63;25.25;;;;;;;3.98;100.00;103903.63;5053215;28;20473;-85
2022/01/18 08:37:23;;;;;;;61.50;26.77;;;;;;;4.05;100.00;103905.69;5053458;28;20540;-86
2022/01/18 08:39:48;;;;;;;73.28;25.55;;;;;;;4.08;100.00;103910.16;5052658;28;20075;-87
2022/01/18 08:42:14;;;;;;;73.25;25.25;;;;;;;4.08;100.00;103907.56;5053179;28;20437;-86
2022/01/18 08:44:43;;;;;;;72.22;24.67;;;;;;;4.13;100.00;103908.72;5053194;28;20029;-82
2022/01/18 08:47:10;;;;;;;67.85;25.42;;;;;;;4.16;100.00;103908.88;5052677;28;20032;-84
2022/01/18 08:49:35;;;;;;;77.45;26.45;;;;;;;4.20;100.00;103915.97;5053138;28;20057;-84
2022/01/18 08:52:00;;;;;;;71.88;25.35;;;;;;;4.27;100.00;103917.16;5053112;28;20064;-84
2022/01/18 08:54:26;;;;;;;77.88;24.67;;;;;;;4.28;100.00;103914.66;5052551;28;20029;-83
2022/01/18 08:56:51;;;;;;;67.13;23.90;;;;;;;4.34;100.00;103920.13;5053481;28;20027;-84
2022/01/18 08:59:16;;;;;;;62.90;23.08;;;;;;;4.34;100.00;103914.97;5052766;28;20036;-84
2022/01/18 09:01:41;;;;;;;65.97;23.58;;;;;;;4.36;100.00;103913.34;5052120;28;20028;-84
2022/01/18 09:04:07;;;;;;;66.20;23.88;;;;;;;4.39;100.00;103918.69;5052555;28;20033;-84
2022/01/18 09:06:32;;;;;;;65.68;22.48;;;;;;;4.46;100.00;103919.88;5053118;28;20054;-84
2022/01/18 09:08:58;;;;;;;60.80;22.75;;;;;;;4.47;100.00;103907.03;5052037;28;20029;-84
2022/01/18 09:11:25;;;;;;;65.70;21.30;;;;;;;4.54;100.00;103912.50;5052849;28;20112;-84
2022/01/18 09:13:51;;;;;;;68.85;22.17;;;;;;;4.60;100.00;103908.53;5052467;28;20029;-84
2022/01/18 09:16:18;;;;;;;67.20;21.65;;;;;;;4.66;100.00;103919.19;5053072;28;20025;-83
2022/01/18 09:18:44;;;;;;;61.22;20.73;;;;;;;4.71;100.00;103919.44;5052710;28;20056;-83
2022/01/18 09:21:09;;;;;;;55.97;21.25;;;;;;;4.74;100.00;103924.75;5051902;28;20476;-84
2022/01/18 09:23:36;;;;;;;57.38;20.65;;;;;;;4.78;100.00;103924.09;5052649;28;20029;-84
2022/01/18 09:26:01;;;;;;;62.78;20.63;;;;;;;4.85;100.00;103923.56;5052617;28;20154;-84
2022/01/18 09:28:26;;;;;;;62.97;21.17;;;;;;;4.93;100.00;103923.94;5051713;28;20523;-84
2022/01/18 09:30:52;;;;;;;64.28;21.52;;;;;;;5.00;100.00;103914.78;5052583;28;20029;-84
2022/01/18 09:33:17;;;;;;;56.35;21.58;;;;;;;5.09;100.00;103926.47;5052515;28;20472;-84
2022/01/18 09:35:42;;;;;;;54.15;21.15;;;;;;;5.13;100.00;103922.31;5052082;28;20056;-83
2022/01/18 09:38:08;;;;;;;46.40;19.05;;;;;;;5.14;100.00;103924.13;5052277;28;20025;-84
2022/01/18 09:40:37;;;;;;;49.10;18.65;;;;;;;5.11;100.00;103922.25;5052383;28;20116;-83
2022/01/18 09:43:09;;;;;;;49.80;18.80;;;;;;;5.15;100.00;103933.63;5051647;28;20029;-85
2022/01/18 09:45:35;;;;;;;40.95;17.08;;;;;;;5.11;100.00;103932.59;5052387;28;20049;-83
2022/01/18 09:48:02;;;;;;;47.97;18.50;;;;;;;5.09;100.00;103931.63;5052263;28;20029;-84
2022/01/18 09:50:31;;;;;;;46.00;19.30;;;;;;;5.09;100.00;103936.81;5051723;28;20396;-84
2022/01/18 09:52:58;;;;;;;46.50;18.77;;;;;;;5.16;100.00;103940.56;5052113;28;20106;-83
2022/01/18 09:55:26;;;;;;;48.70;20.13;;;;;;;5.19;100.00;103935.56;5052480;28;20118;-84
2022/01/18 09:57:53;;;;;;;48.72;20.73;;;;;;;5.23;100.00;103932.31;5051486;28;20021;-84
2022/01/18 10:00:20;;;;;;;48.58;20.40;;;;;;;5.21;100.00;103936.53;5052107;28;20480;-84
2022/01/18 10:02:47;;;;;;;46.70;19.20;;;;;;;5.19;100.00;103934.66;5052092;28;20104;-83
2022/01/18 10:05:27;;;;;;;48.53;20.38;;;;;;;5.14;100.00;103940.53;5051083;28;20457;-84
2022/01/18 10:07:56;;;;;;;52.60;20.20;;;;;;;5.11;100.00;103940.38;5051994;28;20100;-84
2022/01/18 10:10:34;;;;;;;50.53;20.38;;;;;;;5.17;100.00;103934.63;5051277;28;20469;-83
2022/01/18 10:12:59;;;;;;;49.55;21.33;;;;;;;5.30;100.00;103936.09;5051544;28;20135;-84
2022/01/18 10:15:24;;;;;;;58.28;22.20;;;;;;;5.43;100.00;103945.28;5051753;28;20187;-83
2022/01/18 10:17:50;;;;;;;55.60;20.55;;;;;;;5.53;100.00;103942.34;5050677;28;20025;-84
2022/01/18 10:20:20;;;;;;;59.50;20.88;;;;;;;5.60;100.00;103937.53;5046760;28;20025;-84
2022/01/18 10:22:49;;;;;;;56.25;21.20;;;;;;;5.72;100.00;103936.31;5051026;28;20021;-84
2022/01/18 10:25:16;;;;;;;55.70;21.58;;;;;;;5.78;100.00;103937.47;5050712;28;20048;-83
2022/01/18 10:27:41;;;;;;;51.38;21.08;;;;;;;5.84;100.00;103929.09;5050998;28;20045;-84
2022/01/18 10:30:16;;;;;;;50.08;18.85;;;;;;;5.99;100.00;103936.72;5050987;28;20538;-83
2022/01/18 10:32:59;;;;;;;49.95;20.40;;;;;;;6.13;100.00;103934.75;5050750;28;20029;-84
2022/01/18 10:35:25;;;;;;;47.95;18.35;;;;;;;6.31;100.00;103917.41;5050921;28;20473;-84
2022/01/18 10:37:50;;;;;;;52.65;19.30;;;;;;;6.48;100.00;103924.22;5051640;28;20115;-84
2022/01/18 10:40:18;;;;;;;38.72;17.67;;;;;;;6.70;100.00;103923.41;5050548;28;20068;-84
2022/01/18 10:42:48;;;;;;;47.08;18.67;;;;;;;6.82;100.00;103923.03;5051303;28;20032;-90
2022/01/18 10:45:23;;;;;;;48.70;17.30;;;;;;;6.77;100.00;103917.66;5051395;28;20025;-84
2022/01/18 10:48:11;;;;;;;39.92;16.10;;;;;;;6.60;100.00;103912.56;5048532;28;20460;-84
2022/01/18 10:50:39;;;;;;;43.63;16.50;;;;;;;6.42;100.00;103912.69;5051041;28;20530;-83
2022/01/18 10:53:15;;;;;;;38.92;16.17;;;;;;;6.28;100.00;103909.53;5045849;28;20117;-84
2022/01/18 10:55:41;;;;;;;42.15;18.52;;;;;;;6.13;100.00;103907.13;5067190;28;20029;-84
2022/01/18 10:58:14;;;;;;;46.97;17.95;;;;;;;6.05;100.00;103901.63;5051192;28;20025;-84
2022/01/18 11:00:40;;;;;;;40.42;18.67;;;;;;;5.95;100.00;103895.94;5050474;28;20071;-84
2022/01/18 11:03:07;;;;;;;43.20;16.98;;;;;;;5.91;100.00;103901.78;5051306;28;20487;-83
2022/01/18 11:05:35;;;;;;;46.38;18.25;;;;;;;5.87;100.00;103905.94;5050953;28;20068;-84
2022/01/18 11:08:04;;;;;;;46.00;18.63;;;;;;;5.85;100.00;103900.72;5050049;28;20536;-83
2022/01/18 11:10:40;;;;;;;51.53;19.17;;;;;;;5.82;100.00;103890.22;5051249;28;20071;-84
2022/01/18 11:13:10;;;;;;;46.67;20.30;;;;;;;5.86;100.00;103892.13;5049923;28;20029;-83
2022/01/18 11:15:42;;;;;;;47.17;19.88;;;;;;;5.91;100.00;103891.44;5050470;28;20474;-83
2022/01/18 11:18:29;;;;;;;49.28;19.00;;;;;;;5.97;100.00;103899.50;5050981;28;20472;-84
2022/01/18 11:20:56;;;;;;;50.92;19.55;;;;;;;6.00;100.00;103887.56;5050062;28;20033;-84
2022/01/18 11:23:23;;;;;;;47.22;18.63;;;;;;;6.15;100.00;103891.63;5050707;28;20035;-85
2022/01/18 11:25:51;;;;;;;47.50;20.83;;;;;;;6.28;100.00;103889.66;5047817;28;20029;-85
2022/01/18 11:28:17;;;;;;;52.53;19.90;;;;;;;6.37;100.00;103893.47;5049606;28;20045;-84
2022/01/18 11:30:46;;;;;;;41.80;18.45;;;;;;;6.21;100.00;103853.06;5050791;28;20036;-85
2022/01/18 11:33:16;;;;;;;48.58;17.40;;;;;;;6.40;100.00;103880.63;5051942;28;20037;-84
2022/01/18 11:36:04;;;;;;;49.03;17.88;;;;;;;6.44;100.00;103875.66;5053924;28;20540;-85
2022/01/18 11:38:48;;;;;;;44.08;16.80;;;;;;;6.52;100.00;103881.16;5035010;28;20037;-84
2022/01/18 11:41:22;;;;;;;46.33;17.75;;;;;;;6.67;100.00;103874.03;5034850;28;20041;-85
2022/01/18 11:43:48;;;;;;;43.33;18.02;;;;;;;6.85;100.00;103870.41;5040814;28;20041;-85
2022/01/18 11:46:46;;;;;;;39.80;16.98;;;;;;;7.01;100.00;103877.97;5039101;28;20590;-83
2022/01/18 11:49:25;;;;;;;46.58;16.85;;;;;;;7.06;100.00;103873.84;5043748;28;20435;-84
2022/01/18 11:51:59;;;;;;;42.17;16.50;;;;;;;7.02;100.00;103867.66;5054856;28;20029;-84
2022/01/18 11:57:27;;;;;;;39.05;14.55;;;;;;;6.96;100.00;103874.28;5052807;28;20443;-84
2022/01/18 12:00:05;;;;;;;40.03;14.98;;;;;;;6.91;100.00;103875.84;5051626;28;20036;-84
2022/01/18 12:02:41;;;;;;;36.67;15.13;;;;;;;6.91;100.00;103873.25;5053779;28;20111;-84
2022/01/18 12:05:18;;;;;;;37.33;15.70;;;;;;;6.93;100.00;103866.38;5058685;28;20115;-84
2022/01/18 12:07:44;;;;;;;40.33;16.15;;;;;;;7.01;100.00;103867.59;5068547;28;20017;-84
2022/01/18 12:10:32;;;;;;;42.47;15.77;;;;;;;7.06;100.00;103867.75;5055910;28;20037;-84
2022/01/18 12:13:01;;;;;;;49.97;16.70;;;;;;;7.06;100.00;103858.25;5053993;28;20068;-84
2022/01/18 12:15:32;;;;;;;36.67;15.10;;;;;;;7.15;100.00;103849.97;5053391;28;20408;-84
2022/01/18 12:18:02;;;;;;;44.80;16.15;;;;;;;7.33;100.00;103837.72;5052516;28;20451;-85
2022/01/18 12:20:34;;;;;;;43.83;16.60;;;;;;;7.64;100.00;103844.91;5047408;28;20025;-83
2022/01/18 12:23:06;;;;;;;42.05;16.00;;;;;;;7.91;99.35;103846.72;5033906;28;20432;-84
2022/01/18 12:25:35;;;;;;;40.80;15.48;;;;;;;8.18;98.50;103852.91;5039129;28;20495;-84
2022/01/18 12:28:49;;;;;;;42.03;15.63;;;;;;;8.43;99.74;103844.25;5055177;28;20053;-84